createdAt,value
2023-09-01T00:00:04.665Z,99607.34
2023-09-01T00:02:33.928Z,99605.63
2023-09-01T00:05:02.680Z,99611.41
2023-09-01T00:07:30.590Z,99617.53
2023-09-01T00:09:58.198Z,99617.53
2023-09-01T00:12:26.872Z,99621.25
2023-09-01T00:14:54.552Z,99624.62
2023-09-01T00:17:22.266Z,99627.16
2023-09-01T00:19:50.286Z,99635.50
2023-09-01T00:22:17.885Z,99632.69
2023-09-01T00:24:45.486Z,99633.81
2023-09-01T00:27:13.460Z,99635.37
2023-09-01T00:29:41.265Z,99633.81
2023-09-01T00:32:09.015Z,99630.41
2023-09-01T00:34:37.025Z,99632.69
2023-09-01T00:37:04.696Z,99632.12
2023-09-01T00:39:32.297Z,99634.16
2023-09-01T00:42:00.477Z,99626.72
2023-09-01T00:44:28.116Z,99629.06
2023-09-01T00:46:55.863Z,99633.13
2023-09-01T00:49:23.767Z,99634.25
2023-09-01T00:51:51.460Z,99632.56
2023-09-01T00:54:20.156Z,99637.22
2023-09-01T00:56:49.003Z,99645.00
2023-09-01T00:59:16.613Z,99641.66
2023-09-01T01:01:44.311Z,99636.16
2023-09-01T01:04:13.242Z,99645.19
2023-09-01T01:06:43.828Z,99639.00
2023-09-01T01:09:29.565Z,99645.81
2023-09-01T01:12:05.317Z,99642.94
2023-09-01T01:14:37.491Z,99642.03
2023-09-01T01:17:06.945Z,99640.69
2023-09-01T01:19:54.322Z,99643.19
2023-09-01T01:22:42.596Z,99650.22
2023-09-01T01:25:12.405Z,99648.63
2023-09-01T01:27:42.338Z,99652.88
2023-09-01T01:30:11.435Z,99642.91
2023-09-01T01:32:39.972Z,99646.53
2023-09-01T01:35:10.789Z,99649.03
2023-09-01T01:38:23.970Z,99650.59
2023-09-01T01:40:54.316Z,99646.28
2023-09-01T01:43:24.213Z,99648.13
2023-09-01T01:45:52.496Z,99654.09
2023-09-01T01:48:20.156Z,99656.72
2023-09-01T01:50:48.220Z,99654.97
2023-09-01T01:53:16.170Z,99648.16
2023-09-01T01:55:43.995Z,99650.00
2023-09-01T01:58:11.918Z,99652.91
2023-09-01T02:00:40.157Z,99653.13
2023-09-01T02:03:08.232Z,99653.28
2023-09-01T02:05:35.973Z,99652.97
2023-09-01T02:08:04.344Z,99656.13
2023-09-01T02:10:32.870Z,99656.66
2023-09-01T02:13:01.693Z,99660.16
2023-09-01T02:15:29.572Z,99667.16
2023-09-01T02:17:57.674Z,99666.03
2023-09-01T02:20:26.295Z,99665.56
2023-09-01T02:22:55.154Z,99668.16
2023-09-01T02:25:22.911Z,99674.38
2023-09-01T02:27:50.888Z,99669.06
2023-09-01T02:30:18.556Z,99674.94
2023-09-01T02:32:46.554Z,99676.28
2023-09-01T02:35:14.504Z,99672.47
2023-09-01T02:37:42.213Z,99675.50
2023-09-01T02:40:10.322Z,99675.59
2023-09-01T02:42:41.610Z,99689.44
2023-09-01T02:45:10.684Z,99690.41
2023-09-01T02:47:39.000Z,99685.66
2023-09-01T02:50:07.646Z,99687.56
2023-09-01T02:52:35.222Z,99681.31
2023-09-01T02:55:03.514Z,99684.41
2023-09-01T02:57:31.065Z,99685.38
2023-09-01T02:59:58.735Z,99688.47
2023-09-01T03:02:26.818Z,99690.22
2023-09-01T03:04:54.670Z,99684.53
2023-09-01T03:07:22.472Z,99685.81
2023-09-01T03:09:50.476Z,99681.87
2023-09-01T03:12:18.218Z,99684.09
2023-09-01T03:14:47.874Z,99687.63
2023-09-01T03:17:16.161Z,99685.84
2023-09-01T03:19:43.963Z,99678.06
2023-09-01T03:22:11.500Z,99671.09
2023-09-01T03:24:39.418Z,99678.56
2023-09-01T03:27:07.137Z,99678.53
2023-09-01T03:29:34.972Z,99675.66
2023-09-01T03:32:02.955Z,99674.56
2023-09-01T03:34:30.971Z,99679.63
2023-09-01T03:36:58.578Z,99683.59
2023-09-01T03:39:26.600Z,99678.06
2023-09-01T03:41:54.198Z,99673.94
2023-09-01T03:44:22.200Z,99680.44
2023-09-01T03:46:50.182Z,99684.41
2023-09-01T03:49:18.141Z,99679.34
2023-09-01T03:51:45.802Z,99686.47
2023-09-01T03:54:14.266Z,99684.72
2023-09-01T03:56:41.990Z,99690.63
2023-09-01T03:59:09.899Z,99687.44
2023-09-01T04:01:37.969Z,99679.63
2023-09-01T04:04:06.010Z,99683.63
2023-09-01T04:06:33.936Z,99692.25
2023-09-01T04:09:01.673Z,99691.44
2023-09-01T04:11:29.507Z,99689.69
2023-09-01T04:13:57.308Z,99696.84
2023-09-01T04:16:25.325Z,99691.16
2023-09-01T04:18:56.103Z,99689.41
2023-09-01T04:21:24.038Z,99681.94
2023-09-01T04:23:52.123Z,99684.78
2023-09-01T04:26:20.398Z,99686.97
2023-09-01T04:28:48.211Z,99683.50
2023-09-01T04:31:29.516Z,99682.19
2023-09-01T04:33:59.398Z,99690.78
2023-09-01T04:36:41.280Z,99690.75
2023-09-01T04:39:14.560Z,99693.44
2023-09-01T04:44:27.953Z,99698.00
2023-09-01T04:46:55.615Z,99709.25
2023-09-01T04:49:23.471Z,99712.56
2023-09-01T04:51:51.872Z,99716.34
2023-09-01T04:54:20.934Z,99713.78
2023-09-01T04:57:08.539Z,99716.09
2023-09-01T04:59:36.367Z,99714.62
2023-09-01T05:02:04.472Z,99727.84
2023-09-01T05:04:32.418Z,99717.78
2023-09-01T05:07:00.134Z,99715.38
2023-09-01T05:09:29.314Z,99719.72
2023-09-01T05:11:58.865Z,99726.94
2023-09-01T05:14:27.467Z,99731.63
2023-09-01T05:16:55.505Z,99728.44
2023-09-01T05:19:23.463Z,99730.91
2023-09-01T05:21:51.147Z,99728.25
2023-09-01T05:24:19.103Z,99720.72
2023-09-01T05:26:46.970Z,99726.06
2023-09-01T05:29:14.653Z,99738.44
2023-09-01T05:31:42.750Z,99740.16
2023-09-01T05:34:10.822Z,99732.25
2023-09-01T05:36:38.477Z,99744.56
2023-09-01T05:39:06.842Z,99741.28
2023-09-01T05:41:34.597Z,99744.81
2023-09-01T05:44:02.329Z,99743.34
2023-09-01T05:46:30.807Z,99746.53
2023-09-01T05:48:58.887Z,99752.09
2023-09-01T05:51:26.978Z,99749.81
2023-09-01T05:53:54.950Z,99744.97
2023-09-01T05:56:22.691Z,99747.47
2023-09-01T05:58:52.463Z,99747.91
2023-09-01T06:01:20.937Z,99751.00
2023-09-01T06:03:48.969Z,99749.41
2023-09-01T06:06:16.629Z,99748.87
2023-09-01T06:08:46.557Z,99746.84
2023-09-01T06:11:14.708Z,99749.34
2023-09-01T06:13:42.466Z,99750.91
2023-09-01T06:16:10.651Z,99740.47
2023-09-01T06:18:38.709Z,99738.94
2023-09-01T06:23:34.287Z,99744.47
2023-09-01T06:26:02.607Z,99746.25
2023-09-01T06:28:30.613Z,99742.78
2023-09-01T06:30:58.544Z,99758.25
2023-09-01T06:33:26.524Z,99755.06
2023-09-01T06:35:54.220Z,99754.53
2023-09-01T06:38:21.819Z,99748.81
2023-09-01T06:40:49.836Z,99755.50
2023-09-01T06:43:17.502Z,99753.44
2023-09-01T06:45:45.275Z,99756.28
2023-09-01T06:48:13.711Z,99750.75
2023-09-01T06:50:41.799Z,99750.13
2023-09-01T06:53:09.657Z,99750.66
2023-09-01T06:55:37.721Z,99755.94
2023-09-01T06:58:05.434Z,99756.41
2023-09-01T07:00:33.331Z,99761.94
2023-09-01T07:03:01.325Z,99764.78
2023-09-01T07:05:28.995Z,99764.53
2023-09-01T07:07:56.666Z,99770.34
2023-09-01T07:10:24.654Z,99777.72
2023-09-01T07:12:52.261Z,99781.25
2023-09-01T07:15:20.032Z,99794.50
2023-09-01T07:17:47.989Z,99787.91
2023-09-01T07:20:15.752Z,99798.56
2023-09-01T07:22:43.610Z,99799.78
2023-09-01T07:25:11.494Z,99803.47
2023-09-01T07:27:39.151Z,99810.47
2023-09-01T07:30:07.503Z,99808.25
2023-09-01T07:32:35.825Z,99808.75
2023-09-01T07:35:03.625Z,99808.22
2023-09-01T07:37:31.315Z,99811.13
2023-09-01T07:39:59.290Z,99812.16
2023-09-01T07:42:26.894Z,99809.09
2023-09-01T07:44:54.526Z,99807.28
2023-09-01T07:47:22.554Z,99808.91
2023-09-01T07:49:50.236Z,99813.41
2023-09-01T07:52:17.948Z,99815.53
2023-09-01T07:54:45.824Z,99818.69
2023-09-01T07:57:13.407Z,99814.53
2023-09-01T07:59:41.033Z,99816.09
2023-09-01T08:02:09.421Z,99822.00
2023-09-01T08:04:37.441Z,99815.84
2023-09-01T08:07:05.129Z,99820.97
2023-09-01T08:09:35.560Z,99821.03
2023-09-01T08:12:03.302Z,99818.41
2023-09-01T08:14:30.785Z,99820.00
2023-09-01T08:16:58.472Z,99806.06
2023-09-01T08:19:26.424Z,99811.00
2023-09-01T08:21:54.030Z,99815.53
2023-09-01T08:24:21.657Z,99815.59
2023-09-01T08:26:49.631Z,99816.69
2023-09-01T08:29:17.324Z,99818.44
2023-09-01T08:31:44.914Z,99810.06
2023-09-01T08:34:12.775Z,99817.28
2023-09-01T08:36:40.460Z,99816.41
2023-09-01T08:39:08.172Z,99817.03
2023-09-01T08:41:36.190Z,99812.34
2023-09-01T08:44:06.475Z,99815.94
2023-09-01T08:46:34.415Z,99811.88
2023-09-01T08:49:03.986Z,99815.34
2023-09-01T08:51:32.216Z,99821.97
2023-09-01T08:54:00.312Z,99817.75
2023-09-01T08:56:28.170Z,99816.84
2023-09-01T08:58:55.817Z,99819.47
2023-09-01T09:01:23.363Z,99814.19
2023-09-01T09:03:51.531Z,99827.66
2023-09-01T09:06:40.596Z,99815.94
2023-09-01T09:09:11.000Z,99812.03
2023-09-01T09:11:39.504Z,99821.41
2023-09-01T09:14:10.198Z,99819.88
2023-09-01T09:16:51.352Z,99815.69
2023-09-01T09:19:19.329Z,99820.28
2023-09-01T09:21:47.433Z,99814.97
2023-09-01T09:24:22.664Z,99813.25
2023-09-01T09:27:00.316Z,99820.59
2023-09-01T09:29:27.948Z,99817.53
2023-09-01T09:31:58.778Z,99824.81
2023-09-01T09:34:26.387Z,99808.19
2023-09-01T09:36:54.304Z,99803.50
2023-09-01T09:39:29.797Z,99806.62
2023-09-01T09:41:57.465Z,99802.22
2023-09-01T09:44:35.513Z,99804.59
2023-09-01T09:47:05.088Z,99809.19
2023-09-01T09:49:33.763Z,99800.25
2023-09-01T09:52:01.841Z,99807.84
2023-09-01T09:54:30.643Z,99809.91
2023-09-01T09:56:59.129Z,99815.00
2023-09-01T09:59:56.207Z,99801.66
2023-09-01T10:02:32.733Z,99799.12
2023-09-01T10:05:01.199Z,99797.94
2023-09-01T10:07:29.016Z,99798.25
2023-09-01T10:09:56.857Z,99797.75
2023-09-01T10:12:25.372Z,99801.34
2023-09-01T10:14:54.609Z,99799.72
2023-09-01T10:17:23.318Z,99800.25
2023-09-01T10:19:51.460Z,99798.00
2023-09-01T10:22:19.403Z,99798.31
2023-09-01T10:25:07.366Z,99799.62
2023-09-01T10:27:35.622Z,99794.69
2023-09-01T10:30:26.677Z,99804.06
2023-09-01T10:33:07.658Z,99796.69
2023-09-01T10:35:40.047Z,99804.50
2023-09-01T10:38:12.582Z,99808.88
2023-09-01T10:40:53.627Z,99796.28
2023-09-01T10:43:36.766Z,99803.03
2023-09-01T10:46:13.769Z,99803.81
2023-09-01T10:48:48.047Z,99793.56
2023-09-01T10:51:26.132Z,99797.09
2023-09-01T10:53:55.858Z,99781.25
2023-09-01T10:56:24.427Z,99785.59
2023-09-01T10:58:53.745Z,99795.78
2023-09-01T11:01:28.063Z,99787.25
2023-09-01T11:03:56.854Z,99791.94
2023-09-01T11:06:24.811Z,99785.59
2023-09-01T11:09:01.780Z,99783.75
2023-09-01T11:11:29.890Z,99780.13
2023-09-01T11:14:01.440Z,99783.34
2023-09-01T11:16:29.738Z,99784.94
2023-09-01T11:19:02.398Z,99775.44
2023-09-01T11:21:31.216Z,99775.47
2023-09-01T11:24:00.363Z,99779.78
2023-09-01T11:26:29.788Z,99778.59
2023-09-01T11:28:58.141Z,99763.25
2023-09-01T11:31:38.384Z,99770.78
2023-09-01T11:34:06.697Z,99763.72
2023-09-01T11:36:35.274Z,99761.34
2023-09-01T11:39:03.732Z,99759.75
2023-09-01T11:41:31.857Z,99773.13
2023-09-01T11:43:59.662Z,99753.78
2023-09-01T11:46:35.080Z,99754.47
2023-09-01T11:49:04.495Z,99751.41
2023-09-01T11:51:37.944Z,99753.09
2023-09-01T11:54:06.183Z,99749.47
2023-09-01T11:56:34.177Z,99758.94
2023-09-01T11:59:02.214Z,99756.56
2023-09-01T12:01:36.392Z,99751.44
2023-09-01T12:04:08.739Z,99744.03
2023-09-01T12:06:40.676Z,99743.53
2023-09-01T12:09:12.575Z,99752.53
2023-09-01T12:11:55.931Z,99747.22
2023-09-01T12:14:24.624Z,99746.03
2023-09-01T12:16:52.555Z,99747.47
2023-09-01T12:19:25.679Z,99754.44
2023-09-01T12:21:55.161Z,99745.25
2023-09-01T12:24:22.774Z,99743.41
2023-09-01T12:26:51.171Z,99739.72
2023-09-01T12:29:19.905Z,99740.00
2023-09-01T12:31:48.210Z,99736.97
2023-09-01T12:34:15.874Z,99731.03
2023-09-01T12:36:43.877Z,99741.50
2023-09-01T12:39:11.644Z,99740.13
2023-09-01T12:41:39.323Z,99738.81
2023-09-01T12:44:07.293Z,99734.87
2023-09-01T12:46:35.129Z,99735.78
2023-09-01T12:49:02.783Z,99724.50
2023-09-01T12:51:30.875Z,99726.63
2023-09-01T12:53:58.768Z,99722.47
2023-09-01T12:56:26.335Z,99726.50
2023-09-01T12:58:54.285Z,99722.94
2023-09-01T13:01:22.005Z,99719.97
2023-09-01T13:03:49.798Z,99719.09
2023-09-01T13:06:17.881Z,99726.50
2023-09-01T13:08:45.653Z,99726.13
2023-09-01T13:11:13.290Z,99728.91
2023-09-01T13:13:42.176Z,99714.88
2023-09-01T13:16:12.408Z,99717.69
2023-09-01T13:18:40.474Z,99714.81
2023-09-01T13:21:09.107Z,99714.31
2023-09-01T13:23:36.811Z,99713.78
2023-09-01T13:26:04.593Z,99711.09
2023-09-01T13:28:34.438Z,99721.06
2023-09-01T13:31:02.198Z,99712.03
2023-09-01T13:33:30.254Z,99715.62
2023-09-01T13:35:58.437Z,99711.28
2023-09-01T13:38:26.505Z,99712.72
2023-09-01T13:40:57.551Z,99711.97
2023-09-01T13:43:26.872Z,99705.41
2023-09-01T13:46:22.569Z,99703.87
2023-09-01T13:48:57.172Z,99700.91
2023-09-01T13:51:29.596Z,99701.94
2023-09-01T13:53:57.932Z,99692.62
2023-09-01T13:56:25.622Z,99704.13
2023-09-01T13:58:53.314Z,99697.22
2023-09-01T14:01:21.383Z,99692.41
2023-09-01T14:03:49.369Z,99699.97
2023-09-01T14:06:17.189Z,99695.53
2023-09-01T14:08:44.913Z,99701.41
2023-09-01T14:11:12.899Z,99694.50
2023-09-01T14:13:40.576Z,99693.12
2023-09-01T14:16:10.308Z,99693.97
2023-09-01T14:18:39.926Z,99694.91
2023-09-01T14:21:07.768Z,99685.56
2023-09-01T14:23:35.478Z,99687.59
2023-09-01T14:26:03.442Z,99686.69
2023-09-01T14:28:35.150Z,99694.19
2023-09-01T14:31:03.199Z,99694.19
2023-09-01T14:33:45.747Z,99692.97
2023-09-01T14:36:16.544Z,99694.16
2023-09-01T14:38:44.513Z,99695.41
2023-09-01T14:41:19.504Z,99705.22
2023-09-01T14:43:48.132Z,99692.34
2023-09-01T14:46:15.802Z,99701.34
2023-09-01T14:48:43.600Z,99695.94
2023-09-01T14:51:13.776Z,99698.03
2023-09-01T14:53:46.288Z,99690.09
2023-09-01T14:56:16.402Z,99684.59
2023-09-01T14:58:44.427Z,99681.91
2023-09-01T15:01:11.983Z,99684.62
2023-09-01T15:03:40.332Z,99687.69
2023-09-01T15:06:08.433Z,99677.78
2023-09-01T15:08:36.075Z,99683.88
2023-09-01T15:11:04.251Z,99671.69
2023-09-01T15:13:31.933Z,99667.81
2023-09-01T15:15:59.678Z,99671.94
2023-09-01T15:18:27.661Z,99666.72
2023-09-01T15:21:09.411Z,99662.88
2023-09-01T15:23:38.069Z,99663.34
2023-09-01T15:26:06.173Z,99668.47
2023-09-01T15:28:33.836Z,99665.22
2023-09-01T15:31:06.309Z,99660.56
2023-09-01T15:33:34.215Z,99659.38
2023-09-01T15:36:02.367Z,99669.25
2023-09-01T15:38:30.816Z,99666.88
2023-09-01T15:41:00.279Z,99655.91
2023-09-01T15:43:29.065Z,99666.66
2023-09-01T15:45:57.028Z,99665.09
2023-09-01T15:48:25.362Z,99659.19
2023-09-01T15:50:57.863Z,99660.72
2023-09-01T15:53:26.270Z,99654.06
2023-09-01T15:55:56.283Z,99655.66
2023-09-01T15:58:24.408Z,99646.22
2023-09-01T16:01:03.724Z,99654.88
2023-09-01T16:03:46.827Z,99648.97
2023-09-01T16:06:17.326Z,99640.34
2023-09-01T16:08:45.409Z,99644.66
2023-09-01T16:11:13.447Z,99649.38
2023-09-01T16:13:41.126Z,99648.97
2023-09-01T16:16:12.791Z,99642.69
2023-09-01T16:18:40.634Z,99640.75
2023-09-01T16:21:08.411Z,99650.53
2023-09-01T16:23:36.880Z,99645.06
2023-09-01T16:26:04.566Z,99640.75
2023-09-01T16:28:32.172Z,99645.06
2023-09-01T16:31:00.158Z,99645.47
2023-09-01T16:33:27.964Z,99650.97
2023-09-01T16:35:57.537Z,99649.41
2023-09-01T16:38:26.073Z,99645.09
2023-09-01T16:40:54.026Z,99651.34
2023-09-01T16:43:22.513Z,99652.16
2023-09-01T16:45:52.630Z,99641.16
2023-09-01T16:48:20.702Z,99644.25
2023-09-01T16:50:49.120Z,99644.25
2023-09-01T16:53:17.276Z,99643.84
2023-09-01T16:55:46.168Z,99652.47
2023-09-01T16:58:15.029Z,99649.72
2023-09-01T17:00:43.852Z,99645.00
2023-09-01T17:03:11.801Z,99646.59
2023-09-01T17:05:39.539Z,99654.38
2023-09-01T17:08:07.630Z,99657.50
2023-09-01T17:10:35.312Z,99653.97
2023-09-01T17:13:03.212Z,99658.28
2023-09-01T17:15:32.013Z,99649.56
2023-09-01T17:17:59.746Z,99651.03
2023-09-01T17:20:27.906Z,99651.78
2023-09-01T17:23:00.738Z,99658.34
2023-09-01T17:25:28.797Z,99661.44
2023-09-01T17:27:56.873Z,99662.19
2023-09-01T17:30:24.525Z,99657.81
2023-09-01T17:32:52.206Z,99658.53
2023-09-01T17:35:22.342Z,99663.09
2023-09-01T17:37:49.990Z,99677.94
2023-09-01T17:40:17.955Z,99678.59
2023-09-01T17:42:45.877Z,99677.03
2023-09-01T17:45:13.551Z,99676.22
2023-09-01T17:47:41.307Z,99683.16
2023-09-01T17:50:10.225Z,99680.34
2023-09-01T17:52:38.482Z,99679.00
2023-09-01T17:55:06.494Z,99678.88
2023-09-01T17:57:34.581Z,99689.31
2023-09-01T18:00:02.243Z,99685.47
2023-09-01T18:02:36.879Z,99687.16
2023-09-01T18:05:07.354Z,99687.47
2023-09-01T18:07:35.256Z,99694.66
2023-09-01T18:10:03.796Z,99698.50
2023-09-01T18:12:33.163Z,99697.31
2023-09-01T18:15:00.931Z,99699.47
2023-09-01T18:17:28.650Z,99695.44
2023-09-01T18:19:56.630Z,99698.88
2023-09-01T18:22:24.283Z,99704.63
2023-09-01T18:24:52.070Z,99705.31
2023-09-01T18:27:26.753Z,99698.59
2023-09-01T18:29:54.744Z,99697.72
2023-09-01T18:32:26.845Z,99702.84
2023-09-01T18:34:54.867Z,99709.34
2023-09-01T18:37:22.893Z,99702.75
2023-09-01T18:39:50.876Z,99704.94
2023-09-01T18:42:39.031Z,99708.34
2023-09-01T18:45:08.884Z,99713.38
2023-09-01T18:47:40.195Z,99723.66
2023-09-01T18:50:11.335Z,99722.03
2023-09-01T18:52:40.194Z,99723.50
2023-09-01T18:55:09.341Z,99720.91
2023-09-01T18:57:37.729Z,99721.63
2023-09-01T19:00:07.384Z,99720.66
2023-09-01T19:02:37.821Z,99722.81
2023-09-01T19:05:33.917Z,99725.84
2023-09-01T19:08:16.721Z,99727.47
2023-09-01T19:10:46.142Z,99726.94
2023-09-01T19:13:14.947Z,99729.06
2023-09-01T19:15:43.280Z,99727.63
2023-09-01T19:18:12.522Z,99729.66
2023-09-01T19:20:43.835Z,99735.28
2023-09-01T19:23:32.802Z,99729.50
2023-09-01T19:26:02.856Z,99735.28
2023-09-01T19:28:37.822Z,99731.25
2023-09-01T19:31:08.015Z,99730.16
2023-09-01T19:33:37.223Z,99730.88
2023-09-01T19:36:05.144Z,99730.59
2023-09-01T19:38:33.124Z,99733.38
2023-09-01T19:41:01.048Z,99731.44
2023-09-01T19:43:28.747Z,99739.53
2023-09-01T19:45:56.938Z,99735.00
2023-09-01T19:48:25.985Z,99730.94
2023-09-01T19:50:53.593Z,99734.87
2023-09-01T19:53:25.447Z,99733.66
2023-09-01T19:55:56.924Z,99733.06
2023-09-01T19:58:28.590Z,99733.00
2023-09-01T20:00:56.953Z,99733.06
2023-09-01T20:03:25.643Z,99739.16
2023-09-01T20:05:53.404Z,99735.78
2023-09-01T20:08:21.212Z,99741.59
2023-09-01T20:10:49.632Z,99739.84
2023-09-01T20:13:17.681Z,99740.53
2023-09-01T20:15:48.101Z,99739.91
2023-09-01T20:18:17.878Z,99740.88
2023-09-01T20:20:46.702Z,99740.25
2023-09-01T20:23:14.774Z,99738.88
2023-09-01T20:25:43.507Z,99750.22
2023-09-01T20:28:11.654Z,99737.59
2023-09-01T20:30:39.920Z,99742.28
2023-09-01T20:33:08.196Z,99738.06
2023-09-01T20:35:36.012Z,99740.34
2023-09-01T20:38:03.978Z,99747.06
2023-09-01T20:40:31.936Z,99746.53
2023-09-01T20:42:59.706Z,99737.66
2023-09-01T20:45:27.673Z,99742.75
2023-09-01T20:47:55.602Z,99743.91
2023-09-01T20:50:23.237Z,99752.34
2023-09-01T20:52:50.863Z,99752.50
2023-09-01T20:55:18.784Z,99752.56
2023-09-01T20:57:48.108Z,99746.22
2023-09-01T21:00:17.647Z,99747.19
2023-09-01T21:02:47.276Z,99743.53
2023-09-01T21:05:18.061Z,99741.06
2023-09-01T21:07:48.448Z,99735.97
2023-09-01T21:10:16.510Z,99737.56
2023-09-01T21:12:44.229Z,99742.44
2023-09-01T21:15:12.219Z,99747.06
2023-09-01T21:17:40.312Z,99756.59
2023-09-01T21:20:08.728Z,99755.88
2023-09-01T21:22:36.707Z,99758.19
2023-09-01T21:25:04.651Z,99756.41
2023-09-01T21:27:32.244Z,99761.28
2023-09-01T21:30:13.760Z,99759.25
2023-09-01T21:32:41.684Z,99756.72
2023-09-01T21:35:12.799Z,99760.16
2023-09-01T21:37:40.542Z,99766.28
2023-09-01T21:40:09.275Z,99765.16
2023-09-01T21:42:38.544Z,99765.97
2023-09-01T21:45:06.729Z,99772.09
2023-09-01T21:47:34.566Z,99761.09
2023-09-01T21:50:02.816Z,99764.41
2023-09-01T21:52:30.722Z,99766.44
2023-09-01T21:54:58.523Z,99754.31
2023-09-01T21:57:26.417Z,99767.00
2023-09-01T21:59:54.246Z,99766.66
2023-09-01T22:02:22.013Z,99762.13
2023-09-01T22:04:52.383Z,99763.81
2023-09-01T22:07:20.646Z,99762.25
2023-09-01T22:09:48.304Z,99769.97
2023-09-01T22:12:16.278Z,99770.41
2023-09-01T22:14:43.935Z,99772.00
2023-09-01T22:17:11.821Z,99759.44
2023-09-01T22:19:39.812Z,99766.34
2023-09-01T22:22:07.403Z,99774.84
2023-09-01T22:24:35.102Z,99772.34
2023-09-01T22:27:03.302Z,99770.19
2023-09-01T22:29:31.277Z,99776.53
2023-09-01T22:31:59.402Z,99779.13
2023-09-01T22:34:27.368Z,99777.78
2023-09-01T22:36:55.079Z,99779.81
2023-09-01T22:39:22.703Z,99783.31
2023-09-01T22:41:50.780Z,99781.38
2023-09-01T22:44:18.562Z,99774.72
2023-09-01T22:46:46.221Z,99773.78
2023-09-01T22:49:14.144Z,99784.31
2023-09-01T22:51:41.771Z,99792.47
2023-09-01T22:54:09.669Z,99790.22
2023-09-01T22:56:37.732Z,99792.12
2023-09-01T22:59:05.495Z,99795.66
2023-09-01T23:01:33.139Z,99788.16
2023-09-01T23:04:01.183Z,99789.13
2023-09-01T23:06:28.827Z,99791.28
2023-09-01T23:08:56.422Z,99783.12
2023-09-01T23:11:24.237Z,99789.28
2023-09-01T23:13:51.873Z,99789.63
2023-09-01T23:16:19.565Z,99794.16
2023-09-01T23:18:47.723Z,99789.13
2023-09-01T23:21:15.910Z,99781.09
2023-09-01T23:23:43.521Z,99783.72
2023-09-01T23:26:11.722Z,99784.31
2023-09-01T23:28:39.361Z,99794.78
2023-09-01T23:31:07.065Z,99784.84
2023-09-01T23:33:35.062Z,99783.59
2023-09-01T23:36:02.702Z,99785.84
2023-09-01T23:38:30.292Z,99784.81
2023-09-01T23:40:58.269Z,99785.63
2023-09-01T23:43:25.813Z,99785.84
2023-09-01T23:45:53.498Z,99790.16
2023-09-01T23:48:21.459Z,99792.41
2023-09-01T23:50:49.166Z,99789.06
2023-09-01T23:53:17.045Z,99787.09
2023-09-01T23:55:45.356Z,99787.31
2023-09-01T23:58:12.953Z,99787.84
